Rexburg, ID

12:07 AM MDT on September 01, 2016 (GMT -0600)
Rexburg-Madison County | | Change Station

Elev 4859 ft 43.83 °N, 111.81 °W | Updated 14 minutes ago

Clear
Clear
63 °F
Feels Like 63 °F
N
0
Wind Variable Wind from North

Today
High -- | Low -- °F
--% Chance of Precip.
Yesterday
High -- | Low -- °F
Precip. -- in
Pressure 29.88 in
Visibility 10.0 miles
Clouds Clear
Dew Point 42 °F
Humidity 46%
Rainfall 0.00 in
Snow Depth Not available.
6:51 AM 8:01 PM
Waning Crescent, 0% visible
METAR KRXE 010553Z AUTO 00000KT 10SM CLR 17/06 A3003 RMK AO2 SLP118 T01720056 10311 20161 53006
Pressure 29.88 in
Visibility 10.0 miles
Clouds Clear
Dew Point 42 °F
Humidity 46%
Rainfall 0.00 in
Snow Depth Not available.
6:51 AM 8:01 PM
Waning Crescent, 0% visible
METAR KRXE 010553Z AUTO 00000KT 10SM CLR 17/06 A3003 RMK AO2 SLP118 T01720056 10311 20161 53006

10-Day Weather Forecast

Almanac

Astronomy

Sep. 01, 2016 Rise Set
Actual Time
Civil Twilight
Nautical Twilight
Astronomical Twilight
Moon
Length of Visible Light
Length of Day
Tomorrow will be .
, % of the Moon is Illuminated

Today's Extremes

State Highs State Lows

Community

WunderPhotos

Upload Photos

1,936,313 photos uploaded!

WunderBlog® & News

Nearby

Air Quality

  Air Quality AQ Index Pollutant
Not available.

Snow Depth

Station Depth Elevation

Earthquake Activity

City Distance Mag. Time & Date
Minimum magnitude displayed is 2.5.

Coastal Water Temperatures

Place Temperature

Stations

Nearby Weather Stations

Station Location Temp. Windchill Dew Point Humidity Wind Precip. Elev Updated Type
                   

Watches & Warnings

There are currently no watches in effect.